createdAt,value
2022-10-13T00:00:34.403Z,70.59
2022-10-13T00:03:41.991Z,70.41
2022-10-13T00:06:48.096Z,70.55
2022-10-13T00:09:54.319Z,70.69
2022-10-13T00:13:00.387Z,70.69
2022-10-13T00:16:07.103Z,70.65
2022-10-13T00:19:15.156Z,70.66
2022-10-13T00:22:21.703Z,70.86
2022-10-13T00:25:26.313Z,70.79
2022-10-13T00:28:33.219Z,70.88
2022-10-13T00:31:39.353Z,70.61
2022-10-13T00:34:45.491Z,70.73
2022-10-13T00:37:53.635Z,70.76
2022-10-13T00:40:59.708Z,70.74
2022-10-13T00:44:07.322Z,70.48
2022-10-13T00:47:13.559Z,70.61
2022-10-13T00:50:23.203Z,70.66
2022-10-13T00:53:33.363Z,70.93
2022-10-13T00:56:43.070Z,71.11
2022-10-13T00:59:49.699Z,70.94
2022-10-13T01:02:56.023Z,70.99
2022-10-13T01:06:01.718Z,70.81
2022-10-13T01:09:07.825Z,70.95
2022-10-13T01:12:25.518Z,71.02
2022-10-13T01:15:37.937Z,71.30
2022-10-13T01:18:51.959Z,71.31
2022-10-13T01:22:10.648Z,71.41
2022-10-13T01:25:32.650Z,71.25
2022-10-13T01:28:52.970Z,71.12
2022-10-13T01:32:08.016Z,71.33
2022-10-13T01:35:20.223Z,71.14
2022-10-13T01:38:36.729Z,71.13
2022-10-13T01:41:47.805Z,71.17
2022-10-13T01:44:58.304Z,71.08
2022-10-13T01:48:06.662Z,71.28
2022-10-13T01:51:17.679Z,71.20
2022-10-13T01:54:23.811Z,71.31
2022-10-13T01:57:39.658Z,71.32
2022-10-13T02:00:53.885Z,71.53
2022-10-13T02:04:11.912Z,71.43
2022-10-13T02:07:24.731Z,71.46
2022-10-13T02:10:37.846Z,71.27
2022-10-13T02:13:54.334Z,71.39
2022-10-13T02:17:04.693Z,71.49
2022-10-13T02:20:12.938Z,71.49
2022-10-13T02:23:20.382Z,71.41
2022-10-13T02:26:27.109Z,71.65
2022-10-13T02:29:33.737Z,71.75
2022-10-13T02:32:39.848Z,71.66
2022-10-13T02:35:46.312Z,71.63
2022-10-13T02:38:52.537Z,71.84
2022-10-13T02:41:58.639Z,71.88
2022-10-13T02:45:05.340Z,71.78
2022-10-13T02:48:11.689Z,71.84
2022-10-13T02:51:16.236Z,71.94
2022-10-13T02:54:22.431Z,72.06
2022-10-13T02:57:28.615Z,72.08
2022-10-13T03:00:34.899Z,72.10
2022-10-13T03:03:41.127Z,72.12
2022-10-13T03:06:47.207Z,72.13
2022-10-13T03:09:53.276Z,72.07
2022-10-13T03:12:59.894Z,72.17
2022-10-13T03:16:06.544Z,72.13
2022-10-13T03:19:12.818Z,72.21
2022-10-13T03:22:19.351Z,71.99
2022-10-13T03:25:25.653Z,72.01
2022-10-13T03:28:32.188Z,72.23
2022-10-13T03:31:38.259Z,71.98
2022-10-13T03:34:44.345Z,72.05
2022-10-13T03:37:50.566Z,72.19
2022-10-13T03:40:56.883Z,72.26
2022-10-13T03:44:01.904Z,72.16
2022-10-13T03:47:08.048Z,72.27
2022-10-13T03:50:14.542Z,72.19
2022-10-13T03:53:20.733Z,72.25
2022-10-13T03:56:28.377Z,72.37
2022-10-13T03:59:37.000Z,72.37
2022-10-13T04:02:43.521Z,72.43
2022-10-13T04:05:48.488Z,72.49
2022-10-13T04:08:55.224Z,72.53
2022-10-13T04:12:01.538Z,72.64
2022-10-13T04:15:06.525Z,72.66
2022-10-13T04:18:14.328Z,72.65
2022-10-13T04:21:20.536Z,72.62
2022-10-13T04:24:26.657Z,72.58
2022-10-13T04:27:33.690Z,72.61
2022-10-13T04:30:39.888Z,72.56
2022-10-13T04:33:46.316Z,72.69
2022-10-13T04:36:54.306Z,72.71
2022-10-13T04:40:00.409Z,72.63
2022-10-13T04:43:06.477Z,72.69
2022-10-13T04:46:15.421Z,72.72
2022-10-13T04:49:21.555Z,72.70
2022-10-13T04:52:27.728Z,72.66
2022-10-13T04:55:36.298Z,72.81
2022-10-13T04:58:44.083Z,72.78
2022-10-13T05:01:50.350Z,72.77
2022-10-13T05:04:56.513Z,72.88
2022-10-13T05:08:02.653Z,72.92
2022-10-13T05:11:08.871Z,72.91
2022-10-13T05:14:15.251Z,73.07
2022-10-13T05:17:21.347Z,73.08
2022-10-13T05:20:27.626Z,73.01
2022-10-13T05:23:33.774Z,73.03
2022-10-13T05:26:40.323Z,73.06
2022-10-13T05:29:46.419Z,72.98
2022-10-13T05:32:54.010Z,73.08
2022-10-13T05:36:06.863Z,73.17
2022-10-13T05:39:13.241Z,73.33
2022-10-13T05:42:18.086Z,73.35
2022-10-13T05:45:25.755Z,73.38
2022-10-13T05:48:32.399Z,73.41
2022-10-13T05:51:41.476Z,73.43
2022-10-13T05:54:52.142Z,73.55
2022-10-13T05:57:58.370Z,73.65
2022-10-13T06:01:07.149Z,73.61
2022-10-13T06:04:18.411Z,73.56
2022-10-13T06:07:25.135Z,73.73
2022-10-13T06:10:32.104Z,73.84
2022-10-13T06:13:38.292Z,73.84
2022-10-13T06:16:44.476Z,73.88
2022-10-13T06:19:50.413Z,73.98
2022-10-13T06:22:57.535Z,73.94
2022-10-13T06:26:03.582Z,73.87
2022-10-13T06:29:10.118Z,74.03
2022-10-13T06:32:16.487Z,74.13
2022-10-13T06:35:22.506Z,74.18
2022-10-13T06:38:28.955Z,74.18
2022-10-13T06:41:34.988Z,74.37
2022-10-13T06:44:41.165Z,74.40
2022-10-13T06:47:47.351Z,74.39
2022-10-13T06:50:53.625Z,74.42
2022-10-13T06:53:58.558Z,74.55
2022-10-13T06:57:06.593Z,74.65
2022-10-13T07:00:14.336Z,74.73
2022-10-13T07:03:20.389Z,74.88
2022-10-13T07:06:26.593Z,75.02
2022-10-13T07:09:34.116Z,75.17
2022-10-13T07:12:40.229Z,75.29
2022-10-13T07:15:46.407Z,75.38
2022-10-13T07:18:52.559Z,75.58
2022-10-13T07:21:59.247Z,75.64
2022-10-13T07:25:05.846Z,75.80
2022-10-13T07:28:12.041Z,75.86
2022-10-13T07:31:20.873Z,76.10
2022-10-13T07:34:26.983Z,76.08
2022-10-13T07:37:33.201Z,76.22
2022-10-13T07:40:39.745Z,76.38
2022-10-13T07:43:46.164Z,76.49
2022-10-13T07:46:50.714Z,76.57
2022-10-13T07:49:56.919Z,76.66
2022-10-13T07:53:03.011Z,76.72
2022-10-13T07:56:13.751Z,76.74
2022-10-13T07:59:20.404Z,76.87
2022-10-13T08:02:26.557Z,77.02
2022-10-13T08:05:32.722Z,77.15
2022-10-13T08:08:40.264Z,77.20
2022-10-13T08:11:46.379Z,77.16
2022-10-13T08:14:54.579Z,77.11
2022-10-13T08:18:00.828Z,77.16
2022-10-13T08:24:34.019Z,77.32
2022-10-13T08:27:50.663Z,77.41
2022-10-13T08:30:58.310Z,77.43
2022-10-13T08:34:04.659Z,77.66
2022-10-13T08:37:16.305Z,77.63
2022-10-13T08:40:24.297Z,77.96
2022-10-13T08:43:31.222Z,77.95
2022-10-13T08:46:48.344Z,78.05
2022-10-13T08:49:59.799Z,78.12
2022-10-13T08:53:12.572Z,78.09
2022-10-13T08:56:23.459Z,77.93
2022-10-13T08:59:29.961Z,77.99
2022-10-13T09:02:35.956Z,78.07
2022-10-13T09:05:50.032Z,78.00
2022-10-13T09:08:58.920Z,78.07
2022-10-13T09:12:06.050Z,78.23
2022-10-13T09:15:14.496Z,78.41
2022-10-13T09:18:28.789Z,78.33
2022-10-13T09:21:34.966Z,78.15
2022-10-13T09:24:41.247Z,78.31
2022-10-13T09:27:46.463Z,78.30
2022-10-13T09:31:04.410Z,78.26
2022-10-13T09:34:23.980Z,78.28
2022-10-13T09:37:30.143Z,78.22
2022-10-13T09:40:37.225Z,78.19
2022-10-13T09:43:58.751Z,78.22
2022-10-13T09:47:06.787Z,78.42
2022-10-13T09:50:21.422Z,78.40
2022-10-13T09:53:31.310Z,78.04
2022-10-13T09:56:43.692Z,77.73
2022-10-13T09:59:52.309Z,77.64
2022-10-13T10:03:03.586Z,77.53
2022-10-13T10:06:13.818Z,77.38
2022-10-13T10:09:38.030Z,77.34
2022-10-13T10:12:45.320Z,77.35
2022-10-13T10:15:57.870Z,77.17
2022-10-13T10:19:08.717Z,76.99
2022-10-13T10:22:23.100Z,76.72
2022-10-13T10:25:35.576Z,76.76
2022-10-13T10:28:56.885Z,76.59
2022-10-13T10:32:21.659Z,76.36
2022-10-13T10:35:42.911Z,76.02
2022-10-13T10:38:52.793Z,75.73
2022-10-13T10:42:07.427Z,75.70
2022-10-13T10:45:19.880Z,75.38
2022-10-13T10:48:30.135Z,75.32
2022-10-13T10:51:39.397Z,75.03
2022-10-13T10:54:53.630Z,74.72
2022-10-13T10:58:08.451Z,74.44
2022-10-13T11:01:28.649Z,74.16
2022-10-13T11:04:45.056Z,74.09
2022-10-13T11:08:01.616Z,73.73
2022-10-13T11:11:47.552Z,73.47
2022-10-13T11:15:10.206Z,73.23
2022-10-13T11:18:51.079Z,73.09
2022-10-13T11:22:27.481Z,72.82
2022-10-13T11:25:41.750Z,72.56
2022-10-13T11:28:51.168Z,72.24
2022-10-13T11:31:57.722Z,71.91
2022-10-13T11:35:19.679Z,71.60
2022-10-13T11:38:36.488Z,71.57
2022-10-13T11:41:52.679Z,71.42
2022-10-13T11:45:01.026Z,70.99
2022-10-13T11:48:31.823Z,70.68
2022-10-13T11:51:50.294Z,70.51
2022-10-13T11:55:02.815Z,70.09
2022-10-13T11:58:19.598Z,69.84
2022-10-13T12:01:25.747Z,69.25
2022-10-13T12:04:32.009Z,69.10
2022-10-13T12:07:42.186Z,69.03
2022-10-13T12:10:55.071Z,68.95
2022-10-13T12:14:02.328Z,68.59
2022-10-13T12:17:24.245Z,68.40
2022-10-13T12:20:35.308Z,68.02
2022-10-13T12:23:42.202Z,67.79
2022-10-13T12:26:48.442Z,67.73
2022-10-13T12:29:54.620Z,67.39
2022-10-13T12:33:02.013Z,67.13
2022-10-13T12:36:20.575Z,66.82
2022-10-13T12:39:27.903Z,66.56
2022-10-13T12:42:37.302Z,66.35
2022-10-13T12:45:44.507Z,66.29
2022-10-13T12:48:51.380Z,65.97
2022-10-13T12:52:05.325Z,65.85
2022-10-13T12:55:20.602Z,65.56
2022-10-13T12:58:30.794Z,65.22
2022-10-13T13:01:38.078Z,65.15
2022-10-13T13:04:45.739Z,64.96
2022-10-13T13:07:56.495Z,64.78
2022-10-13T13:11:04.000Z,64.45
2022-10-13T13:14:38.747Z,64.36
2022-10-13T13:17:57.902Z,64.28
2022-10-13T13:21:05.824Z,63.91
2022-10-13T13:24:28.268Z,63.64
2022-10-13T13:27:41.093Z,63.60
2022-10-13T13:30:47.179Z,63.39
2022-10-13T13:33:53.621Z,63.31
2022-10-13T13:37:02.700Z,63.10
2022-10-13T13:40:15.972Z,62.90
2022-10-13T13:43:22.271Z,62.76
2022-10-13T13:46:32.605Z,62.52
2022-10-13T13:49:39.215Z,62.37
2022-10-13T13:52:43.803Z,62.30
2022-10-13T13:55:50.579Z,62.19
2022-10-13T13:58:57.135Z,62.02
2022-10-13T14:02:03.601Z,62.01
2022-10-13T14:05:11.219Z,61.83
2022-10-13T14:08:17.352Z,61.79
2022-10-13T14:11:23.355Z,61.48
2022-10-13T14:14:28.029Z,61.62
2022-10-13T14:17:34.234Z,61.39
2022-10-13T14:20:43.882Z,61.33
2022-10-13T14:23:50.133Z,61.23
2022-10-13T14:26:56.351Z,61.19
2022-10-13T14:30:02.696Z,61.18
2022-10-13T14:33:09.185Z,61.02
2022-10-13T14:36:15.274Z,61.11
2022-10-13T14:39:19.872Z,60.96
2022-10-13T14:42:26.303Z,60.92
2022-10-13T14:45:32.369Z,60.94
2022-10-13T14:48:37.848Z,60.74
2022-10-13T14:51:44.201Z,60.83
2022-10-13T14:54:50.389Z,60.77
2022-10-13T14:57:56.482Z,60.87
2022-10-13T15:01:01.044Z,60.90
2022-10-13T15:04:07.825Z,61.05
2022-10-13T15:07:14.051Z,61.08
2022-10-13T15:10:20.460Z,61.08
2022-10-13T15:13:26.725Z,61.26
2022-10-13T15:16:34.391Z,61.23
2022-10-13T15:19:40.472Z,61.43
2022-10-13T15:22:45.011Z,61.64
2022-10-13T15:25:56.385Z,61.81
2022-10-13T15:29:02.637Z,61.83
2022-10-13T15:32:13.791Z,61.85
2022-10-13T15:35:19.801Z,62.10
2022-10-13T15:38:26.479Z,62.18
2022-10-13T15:41:32.511Z,62.43
2022-10-13T15:48:03.176Z,62.72
2022-10-13T15:51:10.630Z,62.72
2022-10-13T15:54:17.808Z,62.95
2022-10-13T15:57:23.947Z,63.09
2022-10-13T16:00:28.735Z,63.55
2022-10-13T16:03:34.989Z,63.60
2022-10-13T16:06:39.484Z,63.64
2022-10-13T16:09:45.603Z,63.82
2022-10-13T16:12:50.074Z,63.93
2022-10-13T16:16:03.184Z,64.04
2022-10-13T16:19:09.330Z,64.19
2022-10-13T16:22:13.799Z,64.20
2022-10-13T16:25:20.067Z,64.37
2022-10-13T16:28:26.266Z,64.57
2022-10-13T16:31:32.463Z,64.73
2022-10-13T16:34:37.900Z,64.88
2022-10-13T16:37:44.069Z,64.82
2022-10-13T16:40:48.521Z,64.92
2022-10-13T16:43:54.624Z,65.25
2022-10-13T16:47:00.825Z,65.33
2022-10-13T16:50:09.891Z,65.44
2022-10-13T16:53:16.305Z,65.51
2022-10-13T16:56:24.138Z,65.58
2022-10-13T16:59:30.705Z,65.77
2022-10-13T17:02:37.485Z,65.84
2022-10-13T17:05:43.613Z,65.94
2022-10-13T17:08:49.776Z,66.10
2022-10-13T17:11:55.852Z,66.03
2022-10-13T17:15:01.976Z,66.03
2022-10-13T17:18:06.843Z,66.27
2022-10-13T17:21:16.311Z,66.40
2022-10-13T17:24:22.870Z,66.61
2022-10-13T17:27:30.076Z,66.74
2022-10-13T17:30:36.283Z,66.69
2022-10-13T17:33:41.396Z,66.82
2022-10-13T17:36:50.774Z,66.88
2022-10-13T17:39:56.980Z,66.95
2022-10-13T17:43:02.388Z,67.09
2022-10-13T17:46:36.288Z,67.06
2022-10-13T17:49:40.105Z,67.08
2022-10-13T17:52:46.808Z,67.18
2022-10-13T17:55:54.895Z,67.29
2022-10-13T17:59:02.531Z,67.50
2022-10-13T18:02:08.750Z,67.47
2022-10-13T18:05:13.327Z,67.43
2022-10-13T18:08:20.075Z,67.74
2022-10-13T18:11:26.716Z,67.65
2022-10-13T18:14:32.820Z,67.69
2022-10-13T18:17:38.855Z,67.82
2022-10-13T18:20:44.927Z,68.03
2022-10-13T18:23:51.196Z,68.06
2022-10-13T18:26:55.661Z,68.05
2022-10-13T18:30:01.793Z,68.30
2022-10-13T18:33:08.029Z,68.20
2022-10-13T18:36:19.977Z,68.38
2022-10-13T18:39:28.560Z,68.28
2022-10-13T18:42:34.681Z,68.47
2022-10-13T18:45:40.815Z,68.60
2022-10-13T18:48:46.794Z,68.56
2022-10-13T18:51:54.014Z,68.42
2022-10-13T18:55:00.199Z,68.49
2022-10-13T18:58:04.764Z,68.47
2022-10-13T19:01:13.364Z,68.70
2022-10-13T19:04:21.700Z,68.70
2022-10-13T19:07:27.756Z,68.98
2022-10-13T19:10:33.786Z,68.97
2022-10-13T19:13:40.342Z,68.95
2022-10-13T19:16:47.052Z,69.14
2022-10-13T19:19:53.259Z,69.19
2022-10-13T19:22:57.815Z,69.22
2022-10-13T19:26:14.021Z,69.28
2022-10-13T19:29:21.031Z,69.36
2022-10-13T19:32:27.221Z,69.14
2022-10-13T19:35:33.342Z,69.35
2022-10-13T19:38:40.407Z,69.45
2022-10-13T19:41:47.955Z,69.34
2022-10-13T19:44:54.129Z,69.31
2022-10-13T19:47:58.650Z,69.40
2022-10-13T19:51:05.911Z,69.32
2022-10-13T19:54:12.330Z,69.43
2022-10-13T19:57:19.834Z,69.60
2022-10-13T20:00:26.233Z,69.63
2022-10-13T20:03:30.804Z,69.72
2022-10-13T20:06:37.790Z,69.96
2022-10-13T20:09:43.906Z,69.81
2022-10-13T20:12:50.075Z,69.81
2022-10-13T20:15:56.132Z,69.82
2022-10-13T20:19:03.310Z,69.96
2022-10-13T20:22:09.519Z,69.97
2022-10-13T20:25:19.781Z,69.81
2022-10-13T20:28:26.056Z,69.97
2022-10-13T20:31:30.779Z,70.00
2022-10-13T20:34:37.002Z,70.13
2022-10-13T20:37:41.474Z,70.17
2022-10-13T20:40:47.600Z,70.24
2022-10-13T20:43:54.772Z,70.32
2022-10-13T20:47:01.047Z,70.24
2022-10-13T20:50:08.568Z,70.29
2022-10-13T20:53:14.542Z,70.44
2022-10-13T20:56:22.858Z,70.48
2022-10-13T20:59:29.200Z,70.37
2022-10-13T21:02:33.913Z,70.31
2022-10-13T21:05:40.128Z,70.58
2022-10-13T21:08:49.250Z,70.54
2022-10-13T21:11:55.479Z,70.48
2022-10-13T21:15:01.553Z,70.57
2022-10-13T21:18:08.833Z,70.51
2022-10-13T21:21:15.235Z,70.74
2022-10-13T21:24:19.861Z,70.77
2022-10-13T21:27:26.116Z,70.84
2022-10-13T21:30:33.016Z,70.77
2022-10-13T21:33:40.913Z,70.88
2022-10-13T21:36:47.087Z,70.94
2022-10-13T21:39:53.510Z,70.87
2022-10-13T21:42:59.508Z,70.90
2022-10-13T21:46:13.351Z,71.22
2022-10-13T21:49:19.515Z,71.16
2022-10-13T21:52:26.256Z,71.29
2022-10-13T21:55:33.124Z,71.30
2022-10-13T21:58:39.954Z,71.41
2022-10-13T22:01:46.321Z,71.51
2022-10-13T22:04:51.357Z,71.53
2022-10-13T22:07:56.958Z,71.59
2022-10-13T22:11:02.468Z,71.50
2022-10-13T22:14:08.719Z,71.48
2022-10-13T22:17:13.149Z,71.44
2022-10-13T22:20:18.900Z,71.57
2022-10-13T22:23:24.249Z,71.56
2022-10-13T22:26:31.349Z,71.51
2022-10-13T22:29:36.728Z,71.51
2022-10-13T22:32:42.066Z,71.56
2022-10-13T22:35:47.569Z,71.66
2022-10-13T22:38:54.964Z,71.59
2022-10-13T22:42:00.408Z,71.87
2022-10-13T22:45:07.326Z,71.73
2022-10-13T22:48:14.289Z,71.69
2022-10-13T22:51:22.683Z,71.91
2022-10-13T22:54:28.122Z,71.94
2022-10-13T22:57:33.686Z,71.79
2022-10-13T23:00:39.885Z,71.85
2022-10-13T23:03:47.650Z,72.08
2022-10-13T23:06:53.070Z,72.09
2022-10-13T23:09:58.545Z,72.03
2022-10-13T23:13:04.262Z,72.20
2022-10-13T23:16:12.559Z,72.04
2022-10-13T23:19:19.638Z,72.26
2022-10-13T23:22:25.033Z,72.42
2022-10-13T23:25:30.490Z,72.42
2022-10-13T23:28:36.964Z,72.43
2022-10-13T23:31:42.830Z,72.42
2022-10-13T23:34:48.368Z,72.33
2022-10-13T23:37:55.920Z,72.41
2022-10-13T23:41:07.679Z,72.48
2022-10-13T23:44:13.777Z,72.62
2022-10-13T23:47:20.184Z,72.63
2022-10-13T23:50:26.675Z,72.86
2022-10-13T23:53:37.333Z,72.94
2022-10-13T23:56:43.514Z,72.92
2022-10-13T23:59:49.739Z,72.88
